KDHN/DHN METAR and TAF weather

Enter ICAO airport designator
Station Type Date Time Source
KDHN METAR 2022/06/28 14:53 UTC NOAA

KDHN 281453Z 00000KT 10SM CLR 30/22 A3012 RMK AO2 SLP194 T03000217 50008


Station Type Date Time Source
KDHN Decoded METAR 2022/06/28 14:53 UTC NOAA

DOTHAN AIRPORT, AL, United States (KDHN) 31-19N 085-27W 113M
Jun 28, 2022 - 10:53 AM EDT / 2022.06.28 1453 UTC
Wind: Calm:0
Visibility: 10 mile(s):0
Sky conditions: clear
Temperature: 86.0 F (30.0 C)
Heat index: 91.4 F (33.0 C):1
Dew Point: 71.1 F (21.7 C)
Relative Humidity: 61%
Pressure (altimeter): 30.12 in. Hg (1019 hPa)
Pressure tendency: 0.02 inches (0.8 hPa) higher than three hours ago
ob: KDHN 281453Z 00000KT 10SM CLR 30/22 A3012 RMK AO2 SLP194 T03000217 50008
cycle: 15

Station Type Date Time Source
KDHN TAF 2022/06/28 12:22 UTC NOAA

TAF KDHN 281120Z 2812/2912 06004KT P6SM SCT050
FM281800 14007KT P6SM VCTS BKN040CB
FM290000 18007KT P6SM BKN050
TEMPO 2900/2903 P6SM -TSRA BKN050CB
FM290600 10004KT P6SM FEW050

Example: see airport list